Terminal Aerodrome Forecast
Issued by NWS

Home | Current Version | Previous Version | Text Only | Print | Product List | Glossary On
Versions: 1 2 3 4 5 6 7 8 9 10 11 12 13 14 15 16 17
149
FTUS46 KSEW 041741
TAFPAE
TAF
KPAE 041741Z 0418/0518 29007KT P6SM -SHRA SCT026 BKN030 OVC040
     FM042000 33005KT P6SM VCSH SCT035 BKN050
     FM050200 17007KT P6SM SCT030 BKN070
     FM051000 15008KT P6SM -SHSN BKN025 OVC050
     FM051300 15005KT 2SM -SN BR SCT006 OVC010=

USA.gov is the U.S. government's official web portal to all federal, state and local government web resources and services.